Saikhan-Ovoo, Mongolia
Current Conditions -  °F | °C
As of 12:30 AM on Monday 26 Jan 2015 (Local Time) from ZMUB Reporting Station
Clear Clear  
Wind Chill: -35°   Ceiling: Unl
Heat Index: -18°   Visibility: 6mi
Dew Point: -26°   Wind: 7mph
Humidity: 70%   Direction: 310°NW
Pressure: 30.48"   Gusts: NA
Location:  45.45°N, 103.9°E
Report Text: ZMUB 251630Z 31003MPS CAVOK M28/M32 Q1032 NOSIG RMK QFE665.3 67
Loading
Personal Weather Stations






























Interactive Weather Map New forecast layout! Learn more

10-Day Weather Forecast

Advertisements
Track Severe Weather on mobile